sensor_id;sensor_type;location;lat;lon;timestamp;temperature;humidity
3954;DHT22;1991;48.682;9.030;2023-01-08T00:01:49;6.30;99.90
3954;DHT22;1991;48.682;9.030;2023-01-08T00:04:14;6.30;99.90
3954;DHT22;1991;48.682;9.030;2023-01-08T00:06:42;6.20;99.90
3954;DHT22;1991;48.682;9.030;2023-01-08T00:09:09;6.20;99.90
3954;DHT22;1991;48.682;9.030;2023-01-08T00:11:35;6.20;99.90
3954;DHT22;1991;48.682;9.030;2023-01-08T00:14:00;6.20;99.90
3954;DHT22;1991;48.682;9.030;2023-01-08T00:16:26;6.10;99.90
3954;DHT22;1991;48.682;9.030;2023-01-08T00:18:51;6.10;99.90
3954;DHT22;1991;48.682;9.030;2023-01-08T00:21:17;6.10;99.90
3954;DHT22;1991;48.682;9.030;2023-01-08T00:23:43;6.00;99.90
3954;DHT22;1991;48.682;9.030;2023-01-08T00:26:09;6.00;99.90
3954;DHT22;1991;48.682;9.030;2023-01-08T00:28:35;6.00;99.90
3954;DHT22;1991;48.682;9.030;2023-01-08T00:31:06;5.90;99.90
3954;DHT22;1991;48.682;9.030;2023-01-08T00:33:32;6.00;99.90
3954;DHT22;1991;48.682;9.030;2023-01-08T00:35:57;6.00;99.90
3954;DHT22;1991;48.682;9.030;2023-01-08T00:38:27;6.00;99.90
3954;DHT22;1991;48.682;9.030;2023-01-08T00:40:53;6.00;99.90
3954;DHT22;1991;48.682;9.030;2023-01-08T00:43:18;6.00;99.90
3954;DHT22;1991;48.682;9.030;2023-01-08T00:45:44;6.00;99.90
3954;DHT22;1991;48.682;9.030;2023-01-08T00:48:10;6.10;99.90
3954;DHT22;1991;48.682;9.030;2023-01-08T00:50:36;6.10;99.90
3954;DHT22;1991;48.682;9.030;2023-01-08T00:53:01;6.10;99.90
3954;DHT22;1991;48.682;9.030;2023-01-08T00:55:28;6.20;99.90
3954;DHT22;1991;48.682;9.030;2023-01-08T00:57:54;6.20;99.90
3954;DHT22;1991;48.682;9.030;2023-01-08T01:00:20;6.30;99.90
3954;DHT22;1991;48.682;9.030;2023-01-08T01:02:46;6.20;99.90
3954;DHT22;1991;48.682;9.030;2023-01-08T01:05:12;6.20;99.90
3954;DHT22;1991;48.682;9.030;2023-01-08T01:07:43;6.10;99.90
3954;DHT22;1991;48.682;9.030;2023-01-08T01:10:10;6.10;99.90
3954;DHT22;1991;48.682;9.030;2023-01-08T01:12:37;6.00;99.90
3954;DHT22;1991;48.682;9.030;2023-01-08T01:15:05;6.00;99.90
3954;DHT22;1991;48.682;9.030;2023-01-08T01:17:31;5.90;99.90
3954;DHT22;1991;48.682;9.030;2023-01-08T01:19:56;5.90;99.90
3954;DHT22;1991;48.682;9.030;2023-01-08T01:22:22;5.90;99.90
3954;DHT22;1991;48.682;9.030;2023-01-08T01:24:47;5.90;99.90
3954;DHT22;1991;48.682;9.030;2023-01-08T01:27:13;5.90;99.90
3954;DHT22;1991;48.682;9.030;2023-01-08T01:29:38;6.00;99.90
3954;DHT22;1991;48.682;9.030;2023-01-08T01:32:04;6.00;99.90
3954;DHT22;1991;48.682;9.030;2023-01-08T01:34:30;6.00;99.90
3954;DHT22;1991;48.682;9.030;2023-01-08T01:36:56;6.00;99.90
3954;DHT22;1991;48.682;9.030;2023-01-08T01:39:21;6.10;99.90
3954;DHT22;1991;48.682;9.030;2023-01-08T01:41:47;6.10;99.90
3954;DHT22;1991;48.682;9.030;2023-01-08T01:44:51;6.10;99.90
3954;DHT22;1991;48.682;9.030;2023-01-08T01:47:35;6.20;99.90
3954;DHT22;1991;48.682;9.030;2023-01-08T01:52:47;6.30;99.90
3954;DHT22;1991;48.682;9.030;2023-01-08T01:55:17;6.30;99.90
3954;DHT22;1991;48.682;9.030;2023-01-08T01:57:49;6.30;99.90
3954;DHT22;1991;48.682;9.030;2023-01-08T02:00:16;6.30;99.90
3954;DHT22;1991;48.682;9.030;2023-01-08T02:02:42;6.30;99.90
3954;DHT22;1991;48.682;9.030;2023-01-08T02:05:08;6.30;99.90
3954;DHT22;1991;48.682;9.030;2023-01-08T02:07:59;6.40;99.90
3954;DHT22;1991;48.682;9.030;2023-01-08T02:10:44;6.40;99.90
3954;DHT22;1991;48.682;9.030;2023-01-08T02:13:19;6.50;99.90
3954;DHT22;1991;48.682;9.030;2023-01-08T02:16:16;6.50;99.90
3954;DHT22;1991;48.682;9.030;2023-01-08T02:18:47;6.60;99.90
3954;DHT22;1991;48.682;9.030;2023-01-08T02:24:08;6.60;99.90
3954;DHT22;1991;48.682;9.030;2023-01-08T02:26:36;6.70;99.90
3954;DHT22;1991;48.682;9.030;2023-01-08T02:29:02;6.60;99.90
3954;DHT22;1991;48.682;9.030;2023-01-08T02:31:30;6.70;99.90
3954;DHT22;1991;48.682;9.030;2023-01-08T02:33:56;6.70;99.90
3954;DHT22;1991;48.682;9.030;2023-01-08T02:44:12;6.60;99.90
3954;DHT22;1991;48.682;9.030;2023-01-08T02:46:42;6.60;99.90
3954;DHT22;1991;48.682;9.030;2023-01-08T02:49:10;6.50;99.90
3954;DHT22;1991;48.682;9.030;2023-01-08T02:51:43;6.50;99.90
3954;DHT22;1991;48.682;9.030;2023-01-08T02:54:17;6.40;99.90
3954;DHT22;1991;48.682;9.030;2023-01-08T02:56:47;6.50;99.90
3954;DHT22;1991;48.682;9.030;2023-01-08T02:59:14;6.50;99.90
3954;DHT22;1991;48.682;9.030;2023-01-08T03:01:41;6.60;99.90
3954;DHT22;1991;48.682;9.030;2023-01-08T03:04:14;6.60;99.90
3954;DHT22;1991;48.682;9.030;2023-01-08T03:06:42;6.70;99.90
3954;DHT22;1991;48.682;9.030;2023-01-08T03:09:08;6.80;99.90
3954;DHT22;1991;48.682;9.030;2023-01-08T03:11:46;6.80;99.90
3954;DHT22;1991;48.682;9.030;2023-01-08T03:17:04;6.80;99.90
3954;DHT22;1991;48.682;9.030;2023-01-08T03:19:35;6.80;99.90
3954;DHT22;1991;48.682;9.030;2023-01-08T03:22:08;6.80;99.90
3954;DHT22;1991;48.682;9.030;2023-01-08T03:24:37;6.70;99.90
3954;DHT22;1991;48.682;9.030;2023-01-08T03:27:07;6.70;99.90
3954;DHT22;1991;48.682;9.030;2023-01-08T03:29:35;6.70;99.90
3954;DHT22;1991;48.682;9.030;2023-01-08T03:32:04;6.60;99.90
3954;DHT22;1991;48.682;9.030;2023-01-08T03:34:32;6.70;99.90
3954;DHT22;1991;48.682;9.030;2023-01-08T03:37:02;6.70;99.90
3954;DHT22;1991;48.682;9.030;2023-01-08T03:39:32;6.60;99.90
3954;DHT22;1991;48.682;9.030;2023-01-08T03:42:05;6.70;99.90
3954;DHT22;1991;48.682;9.030;2023-01-08T03:44:32;6.70;99.90
3954;DHT22;1991;48.682;9.030;2023-01-08T03:46:57;6.70;99.90
3954;DHT22;1991;48.682;9.030;2023-01-08T03:49:25;6.60;99.90
3954;DHT22;1991;48.682;9.030;2023-01-08T03:51:52;6.60;99.90
3954;DHT22;1991;48.682;9.030;2023-01-08T03:54:20;6.70;99.90
3954;DHT22;1991;48.682;9.030;2023-01-08T03:56:47;6.60;99.90
3954;DHT22;1991;48.682;9.030;2023-01-08T03:59:14;6.60;99.90
3954;DHT22;1991;48.682;9.030;2023-01-08T04:01:40;6.50;99.90
3954;DHT22;1991;48.682;9.030;2023-01-08T04:04:06;6.60;99.90
3954;DHT22;1991;48.682;9.030;2023-01-08T04:06:32;6.60;99.90
3954;DHT22;1991;48.682;9.030;2023-01-08T04:08:58;6.70;99.90
3954;DHT22;1991;48.682;9.030;2023-01-08T04:11:23;6.80;99.90
3954;DHT22;1991;48.682;9.030;2023-01-08T04:13:49;6.80;99.90
3954;DHT22;1991;48.682;9.030;2023-01-08T04:16:15;6.90;99.90
3954;DHT22;1991;48.682;9.030;2023-01-08T04:18:40;6.90;99.90
3954;DHT22;1991;48.682;9.030;2023-01-08T04:21:06;7.00;99.90
3954;DHT22;1991;48.682;9.030;2023-01-08T04:23:32;7.00;99.90
3954;DHT22;1991;48.682;9.030;2023-01-08T04:25:57;7.00;99.90
3954;DHT22;1991;48.682;9.030;2023-01-08T04:28:23;7.10;99.90
3954;DHT22;1991;48.682;9.030;2023-01-08T04:30:49;7.10;99.90
3954;DHT22;1991;48.682;9.030;2023-01-08T04:33:15;7.10;99.90
3954;DHT22;1991;48.682;9.030;2023-01-08T04:35:40;7.10;99.90
3954;DHT22;1991;48.682;9.030;2023-01-08T04:38:06;7.20;99.90
3954;DHT22;1991;48.682;9.030;2023-01-08T04:40:33;7.20;99.90
3954;DHT22;1991;48.682;9.030;2023-01-08T04:42:58;7.40;99.90
3954;DHT22;1991;48.682;9.030;2023-01-08T04:45:24;7.50;99.90
3954;DHT22;1991;48.682;9.030;2023-01-08T04:47:56;7.40;99.90
3954;DHT22;1991;48.682;9.030;2023-01-08T04:50:22;7.50;99.90
3954;DHT22;1991;48.682;9.030;2023-01-08T04:52:48;7.50;99.90
3954;DHT22;1991;48.682;9.030;2023-01-08T04:55:14;7.50;99.90
3954;DHT22;1991;48.682;9.030;2023-01-08T04:57:39;7.60;99.90
3954;DHT22;1991;48.682;9.030;2023-01-08T05:00:05;7.70;99.90
3954;DHT22;1991;48.682;9.030;2023-01-08T05:02:31;7.80;99.90
3954;DHT22;1991;48.682;9.030;2023-01-08T05:04:57;7.80;99.90
3954;DHT22;1991;48.682;9.030;2023-01-08T05:07:22;7.90;99.90
3954;DHT22;1991;48.682;9.030;2023-01-08T05:09:48;8.00;99.90
3954;DHT22;1991;48.682;9.030;2023-01-08T05:12:13;7.90;99.90
3954;DHT22;1991;48.682;9.030;2023-01-08T05:14:39;7.90;99.90
3954;DHT22;1991;48.682;9.030;2023-01-08T05:17:04;7.90;99.90
3954;DHT22;1991;48.682;9.030;2023-01-08T05:19:30;8.00;99.90
3954;DHT22;1991;48.682;9.030;2023-01-08T05:21:55;7.90;99.90
3954;DHT22;1991;48.682;9.030;2023-01-08T05:24:22;7.90;99.90
3954;DHT22;1991;48.682;9.030;2023-01-08T05:26:48;7.90;99.90
3954;DHT22;1991;48.682;9.030;2023-01-08T05:29:13;7.90;99.90
3954;DHT22;1991;48.682;9.030;2023-01-08T05:31:39;7.90;99.90
3954;DHT22;1991;48.682;9.030;2023-01-08T05:34:04;7.90;99.90
3954;DHT22;1991;48.682;9.030;2023-01-08T05:36:30;7.90;99.90
3954;DHT22;1991;48.682;9.030;2023-01-08T05:38:56;7.90;99.90
3954;DHT22;1991;48.682;9.030;2023-01-08T05:41:21;7.80;99.90
3954;DHT22;1991;48.682;9.030;2023-01-08T05:43:47;7.80;99.90
3954;DHT22;1991;48.682;9.030;2023-01-08T05:46:12;7.90;99.90
3954;DHT22;1991;48.682;9.030;2023-01-08T05:48:38;7.90;99.90
3954;DHT22;1991;48.682;9.030;2023-01-08T05:51:04;7.90;99.90
3954;DHT22;1991;48.682;9.030;2023-01-08T05:53:30;7.90;99.90
3954;DHT22;1991;48.682;9.030;2023-01-08T05:56:03;7.90;99.90
3954;DHT22;1991;48.682;9.030;2023-01-08T05:58:29;7.80;99.90
3954;DHT22;1991;48.682;9.030;2023-01-08T06:01:01;7.80;99.90
3954;DHT22;1991;48.682;9.030;2023-01-08T06:03:27;7.70;99.90
3954;DHT22;1991;48.682;9.030;2023-01-08T06:05:57;7.70;99.90
3954;DHT22;1991;48.682;9.030;2023-01-08T06:08:23;7.70;99.90
3954;DHT22;1991;48.682;9.030;2023-01-08T06:10:48;7.70;99.90
3954;DHT22;1991;48.682;9.030;2023-01-08T06:13:14;7.70;99.90
3954;DHT22;1991;48.682;9.030;2023-01-08T06:15:39;7.70;99.90
3954;DHT22;1991;48.682;9.030;2023-01-08T06:18:05;7.70;99.90
3954;DHT22;1991;48.682;9.030;2023-01-08T06:20:31;7.70;99.90
3954;DHT22;1991;48.682;9.030;2023-01-08T06:22:56;7.70;99.90
3954;DHT22;1991;48.682;9.030;2023-01-08T06:25:22;7.70;99.90
3954;DHT22;1991;48.682;9.030;2023-01-08T06:27:51;7.70;99.90
3954;DHT22;1991;48.682;9.030;2023-01-08T06:30:17;7.80;99.90
3954;DHT22;1991;48.682;9.030;2023-01-08T06:32:42;7.80;99.90
3954;DHT22;1991;48.682;9.030;2023-01-08T06:35:08;7.80;99.90
3954;DHT22;1991;48.682;9.030;2023-01-08T06:37:34;7.80;99.90
3954;DHT22;1991;48.682;9.030;2023-01-08T06:40:00;7.90;99.90
3954;DHT22;1991;48.682;9.030;2023-01-08T06:42:25;7.80;99.90
3954;DHT22;1991;48.682;9.030;2023-01-08T06:44:51;7.70;99.90
3954;DHT22;1991;48.682;9.030;2023-01-08T06:47:16;7.70;99.90
3954;DHT22;1991;48.682;9.030;2023-01-08T06:49:42;7.60;99.90
3954;DHT22;1991;48.682;9.030;2023-01-08T06:52:07;7.60;99.90
3954;DHT22;1991;48.682;9.030;2023-01-08T06:54:33;7.60;99.90
3954;DHT22;1991;48.682;9.030;2023-01-08T06:56:59;7.60;99.90
3954;DHT22;1991;48.682;9.030;2023-01-08T06:59:24;7.60;99.90
3954;DHT22;1991;48.682;9.030;2023-01-08T07:01:50;7.50;99.90
3954;DHT22;1991;48.682;9.030;2023-01-08T07:04:16;7.50;99.90
3954;DHT22;1991;48.682;9.030;2023-01-08T07:06:42;7.50;99.90
3954;DHT22;1991;48.682;9.030;2023-01-08T07:09:12;7.50;99.90
3954;DHT22;1991;48.682;9.030;2023-01-08T07:11:37;7.40;99.90
3954;DHT22;1991;48.682;9.030;2023-01-08T07:14:03;7.40;99.90
3954;DHT22;1991;48.682;9.030;2023-01-08T07:16:29;7.40;99.90
3954;DHT22;1991;48.682;9.030;2023-01-08T07:18:54;7.50;99.90
3954;DHT22;1991;48.682;9.030;2023-01-08T07:21:20;7.50;99.90
3954;DHT22;1991;48.682;9.030;2023-01-08T07:23:50;7.40;99.90
3954;DHT22;1991;48.682;9.030;2023-01-08T07:26:16;7.40;99.90
3954;DHT22;1991;48.682;9.030;2023-01-08T07:28:42;7.40;99.90
3954;DHT22;1991;48.682;9.030;2023-01-08T07:31:08;7.40;99.90
3954;DHT22;1991;48.682;9.030;2023-01-08T07:33:34;7.40;99.90
3954;DHT22;1991;48.682;9.030;2023-01-08T07:36:00;7.40;99.90
3954;DHT22;1991;48.682;9.030;2023-01-08T07:38:26;7.40;99.90
3954;DHT22;1991;48.682;9.030;2023-01-08T07:40:52;7.40;99.90
3954;DHT22;1991;48.682;9.030;2023-01-08T07:43:18;7.40;99.90
3954;DHT22;1991;48.682;9.030;2023-01-08T07:45:43;7.50;99.90
3954;DHT22;1991;48.682;9.030;2023-01-08T07:48:09;7.40;99.90
3954;DHT22;1991;48.682;9.030;2023-01-08T07:50:40;7.50;99.90
3954;DHT22;1991;48.682;9.030;2023-01-08T07:53:06;7.40;99.90
3954;DHT22;1991;48.682;9.030;2023-01-08T07:55:31;7.50;99.90
3954;DHT22;1991;48.682;9.030;2023-01-08T07:57:57;7.40;99.90
3954;DHT22;1991;48.682;9.030;2023-01-08T08:00:23;7.50;99.90
3954;DHT22;1991;48.682;9.030;2023-01-08T08:02:48;7.50;99.90
3954;DHT22;1991;48.682;9.030;2023-01-08T08:05:14;7.50;99.90
3954;DHT22;1991;48.682;9.030;2023-01-08T08:07:42;7.50;99.90
3954;DHT22;1991;48.682;9.030;2023-01-08T08:10:08;7.50;99.90
3954;DHT22;1991;48.682;9.030;2023-01-08T08:12:36;7.50;99.90
3954;DHT22;1991;48.682;9.030;2023-01-08T08:15:02;7.40;99.90
3954;DHT22;1991;48.682;9.030;2023-01-08T08:17:28;7.50;99.90
3954;DHT22;1991;48.682;9.030;2023-01-08T08:19:54;7.40;99.90
3954;DHT22;1991;48.682;9.030;2023-01-08T08:22:20;7.40;99.90
3954;DHT22;1991;48.682;9.030;2023-01-08T08:24:45;7.40;99.90
3954;DHT22;1991;48.682;9.030;2023-01-08T08:27:11;7.40;99.90
3954;DHT22;1991;48.682;9.030;2023-01-08T08:29:36;7.40;99.90
3954;DHT22;1991;48.682;9.030;2023-01-08T08:32:02;7.40;99.90
3954;DHT22;1991;48.682;9.030;2023-01-08T08:34:28;7.40;99.90
3954;DHT22;1991;48.682;9.030;2023-01-08T08:36:53;7.40;99.90
3954;DHT22;1991;48.682;9.030;2023-01-08T08:39:19;7.50;99.90
3954;DHT22;1991;48.682;9.030;2023-01-08T08:41:44;7.40;99.90
3954;DHT22;1991;48.682;9.030;2023-01-08T08:44:10;7.50;99.90
3954;DHT22;1991;48.682;9.030;2023-01-08T08:46:35;7.50;99.90
3954;DHT22;1991;48.682;9.030;2023-01-08T08:49:01;7.60;99.90
3954;DHT22;1991;48.682;9.030;2023-01-08T08:51:27;7.60;99.90
3954;DHT22;1991;48.682;9.030;2023-01-08T08:53:52;7.60;99.90
3954;DHT22;1991;48.682;9.030;2023-01-08T08:56:18;7.50;99.90
3954;DHT22;1991;48.682;9.030;2023-01-08T08:58:43;7.60;99.90
3954;DHT22;1991;48.682;9.030;2023-01-08T09:01:12;7.60;99.90
3954;DHT22;1991;48.682;9.030;2023-01-08T09:03:38;7.60;99.90
3954;DHT22;1991;48.682;9.030;2023-01-08T09:06:03;7.60;99.90
3954;DHT22;1991;48.682;9.030;2023-01-08T09:08:29;7.70;99.90
3954;DHT22;1991;48.682;9.030;2023-01-08T09:10:55;7.70;99.90
3954;DHT22;1991;48.682;9.030;2023-01-08T09:13:20;7.70;99.90
3954;DHT22;1991;48.682;9.030;2023-01-08T09:16:00;7.70;99.90
3954;DHT22;1991;48.682;9.030;2023-01-08T09:18:25;7.70;99.90
3954;DHT22;1991;48.682;9.030;2023-01-08T09:20:51;7.80;99.90
3954;DHT22;1991;48.682;9.030;2023-01-08T09:23:16;7.80;99.90
3954;DHT22;1991;48.682;9.030;2023-01-08T09:25:42;7.90;99.90
3954;DHT22;1991;48.682;9.030;2023-01-08T09:28:10;7.90;99.90
3954;DHT22;1991;48.682;9.030;2023-01-08T09:30:37;8.00;99.90
3954;DHT22;1991;48.682;9.030;2023-01-08T09:33:04;8.00;99.90
3954;DHT22;1991;48.682;9.030;2023-01-08T09:35:30;8.00;99.90
3954;DHT22;1991;48.682;9.030;2023-01-08T09:37:56;7.90;99.90
3954;DHT22;1991;48.682;9.030;2023-01-08T09:40:25;7.90;99.90
3954;DHT22;1991;48.682;9.030;2023-01-08T09:42:57;7.90;99.90
3954;DHT22;1991;48.682;9.030;2023-01-08T09:45:29;8.00;99.90
3954;DHT22;1991;48.682;9.030;2023-01-08T09:47:57;8.10;99.90
3954;DHT22;1991;48.682;9.030;2023-01-08T09:50:26;8.10;99.90
3954;DHT22;1991;48.682;9.030;2023-01-08T09:52:52;8.20;99.90
3954;DHT22;1991;48.682;9.030;2023-01-08T09:55:18;8.20;99.90
3954;DHT22;1991;48.682;9.030;2023-01-08T09:57:45;8.20;99.90
3954;DHT22;1991;48.682;9.030;2023-01-08T10:00:16;8.20;99.90
3954;DHT22;1991;48.682;9.030;2023-01-08T10:02:44;8.20;99.90
3954;DHT22;1991;48.682;9.030;2023-01-08T10:05:16;8.20;99.90
3954;DHT22;1991;48.682;9.030;2023-01-08T10:07:42;8.20;99.90
3954;DHT22;1991;48.682;9.030;2023-01-08T10:10:28;8.20;99.90
3954;DHT22;1991;48.682;9.030;2023-01-08T10:12:55;8.30;99.90
3954;DHT22;1991;48.682;9.030;2023-01-08T10:15:21;8.30;99.90
3954;DHT22;1991;48.682;9.030;2023-01-08T10:18:06;8.30;99.90
3954;DHT22;1991;48.682;9.030;2023-01-08T10:20:34;8.30;99.90
3954;DHT22;1991;48.682;9.030;2023-01-08T10:23:17;8.40;99.90
3954;DHT22;1991;48.682;9.030;2023-01-08T10:25:51;8.40;99.90
3954;DHT22;1991;48.682;9.030;2023-01-08T10:28:20;8.40;99.90
3954;DHT22;1991;48.682;9.030;2023-01-08T10:30:48;8.40;99.90
3954;DHT22;1991;48.682;9.030;2023-01-08T10:33:22;8.50;99.90
3954;DHT22;1991;48.682;9.030;2023-01-08T10:36:02;8.60;99.90
3954;DHT22;1991;48.682;9.030;2023-01-08T10:38:35;8.50;99.90
3954;DHT22;1991;48.682;9.030;2023-01-08T10:41:09;8.50;99.90
3954;DHT22;1991;48.682;9.030;2023-01-08T10:43:46;8.50;99.90
3954;DHT22;1991;48.682;9.030;2023-01-08T10:48:51;8.60;99.90
3954;DHT22;1991;48.682;9.030;2023-01-08T10:51:24;8.80;99.90
3954;DHT22;1991;48.682;9.030;2023-01-08T10:53:51;8.90;99.90
3954;DHT22;1991;48.682;9.030;2023-01-08T10:56:26;8.90;99.90
3954;DHT22;1991;48.682;9.030;2023-01-08T10:58:53;9.10;99.90
3954;DHT22;1991;48.682;9.030;2023-01-08T11:01:26;9.20;99.90
3954;DHT22;1991;48.682;9.030;2023-01-08T11:04:00;9.30;99.90
3954;DHT22;1991;48.682;9.030;2023-01-08T11:09:01;9.60;99.90
3954;DHT22;1991;48.682;9.030;2023-01-08T11:11:33;9.80;99.90
3954;DHT22;1991;48.682;9.030;2023-01-08T11:14:01;9.70;99.90
3954;DHT22;1991;48.682;9.030;2023-01-08T11:16:36;9.70;99.90
3954;DHT22;1991;48.682;9.030;2023-01-08T11:19:02;9.60;99.90
3954;DHT22;1991;48.682;9.030;2023-01-08T11:21:30;9.50;99.90
3954;DHT22;1991;48.682;9.030;2023-01-08T11:24:17;9.50;99.90
3954;DHT22;1991;48.682;9.030;2023-01-08T11:27:15;9.70;99.90
3954;DHT22;1991;48.682;9.030;2023-01-08T11:29:46;9.60;99.90
3954;DHT22;1991;48.682;9.030;2023-01-08T11:35:03;9.80;99.90
3954;DHT22;1991;48.682;9.030;2023-01-08T11:37:40;10.00;99.90
3954;DHT22;1991;48.682;9.030;2023-01-08T11:40:30;10.00;99.90
3954;DHT22;1991;48.682;9.030;2023-01-08T11:47:02;9.90;99.90
3954;DHT22;1991;48.682;9.030;2023-01-08T11:49:19;9.90;99.90
3954;DHT22;1991;48.682;9.030;2023-01-08T11:52:00;10.00;99.90
3954;DHT22;1991;48.682;9.030;2023-01-08T11:54:53;9.80;99.90
3954;DHT22;1991;48.682;9.030;2023-01-08T12:02:55;9.80;99.90
3954;DHT22;1991;48.682;9.030;2023-01-08T12:10:57;9.70;99.90
3954;DHT22;1991;48.682;9.030;2023-01-08T12:13:37;9.80;99.90
3954;DHT22;1991;48.682;9.030;2023-01-08T12:21:55;9.80;99.90
3954;DHT22;1991;48.682;9.030;2023-01-08T12:33:06;9.90;99.90
3954;DHT22;1991;48.682;9.030;2023-01-08T12:35:37;9.80;99.90
3954;DHT22;1991;48.682;9.030;2023-01-08T12:38:05;9.70;99.90
3954;DHT22;1991;48.682;9.030;2023-01-08T12:41:10;9.70;99.90
3954;DHT22;1991;48.682;9.030;2023-01-08T12:44:09;9.70;99.90
3954;DHT22;1991;48.682;9.030;2023-01-08T12:46:41;9.80;99.90
3954;DHT22;1991;48.682;9.030;2023-01-08T12:49:11;9.80;99.90
3954;DHT22;1991;48.682;9.030;2023-01-08T12:51:44;9.70;99.90
3954;DHT22;1991;48.682;9.030;2023-01-08T13:00:11;9.70;99.90
3954;DHT22;1991;48.682;9.030;2023-01-08T13:02:50;9.80;99.90
3954;DHT22;1991;48.682;9.030;2023-01-08T13:07:45;9.70;99.90
3954;DHT22;1991;48.682;9.030;2023-01-08T13:10:34;9.60;99.90
3954;DHT22;1991;48.682;9.030;2023-01-08T13:13:00;9.50;99.90
3954;DHT22;1991;48.682;9.030;2023-01-08T13:15:28;9.50;99.90
3954;DHT22;1991;48.682;9.030;2023-01-08T13:17:57;9.40;99.90
3954;DHT22;1991;48.682;9.030;2023-01-08T13:20:29;9.40;99.90
3954;DHT22;1991;48.682;9.030;2023-01-08T13:22:58;9.30;99.90
3954;DHT22;1991;48.682;9.030;2023-01-08T13:27:50;9.30;99.90
3954;DHT22;1991;48.682;9.030;2023-01-08T13:30:48;9.30;99.90
3954;DHT22;1991;48.682;9.030;2023-01-08T13:36:18;9.40;99.90
3954;DHT22;1991;48.682;9.030;2023-01-08T13:39:21;9.40;99.90
3954;DHT22;1991;48.682;9.030;2023-01-08T13:44:40;9.70;99.90
3954;DHT22;1991;48.682;9.030;2023-01-08T13:47:33;9.80;99.90
3954;DHT22;1991;48.682;9.030;2023-01-08T13:50:03;10.00;99.90
3954;DHT22;1991;48.682;9.030;2023-01-08T13:52:33;10.40;99.90
3954;DHT22;1991;48.682;9.030;2023-01-08T13:55:03;10.90;99.90
3954;DHT22;1991;48.682;9.030;2023-01-08T13:57:36;13.60;99.90
3954;DHT22;1991;48.682;9.030;2023-01-08T14:00:05;15.90;95.10
3954;DHT22;1991;48.682;9.030;2023-01-08T14:02:40;16.00;90.70
3954;DHT22;1991;48.682;9.030;2023-01-08T14:05:18;18.00;83.00
3954;DHT22;1991;48.682;9.030;2023-01-08T14:07:44;20.70;69.30
3954;DHT22;1991;48.682;9.030;2023-01-08T14:10:12;21.20;62.60
3954;DHT22;1991;48.682;9.030;2023-01-08T14:12:38;19.90;60.30
3954;DHT22;1991;48.682;9.030;2023-01-08T14:15:07;17.20;66.30
3954;DHT22;1991;48.682;9.030;2023-01-08T14:17:34;15.50;72.50
3954;DHT22;1991;48.682;9.030;2023-01-08T14:20:00;14.40;78.10
3954;DHT22;1991;48.682;9.030;2023-01-08T14:22:31;13.60;81.70
3954;DHT22;1991;48.682;9.030;2023-01-08T14:25:01;12.60;86.80
3954;DHT22;1991;48.682;9.030;2023-01-08T14:27:29;11.80;91.20
3954;DHT22;1991;48.682;9.030;2023-01-08T14:29:55;11.40;94.00
3954;DHT22;1991;48.682;9.030;2023-01-08T14:32:23;11.10;96.10
3954;DHT22;1991;48.682;9.030;2023-01-08T14:34:51;10.90;98.30
3954;DHT22;1991;48.682;9.030;2023-01-08T14:37:17;10.70;99.30
3954;DHT22;1991;48.682;9.030;2023-01-08T14:39:44;10.50;99.90
3954;DHT22;1991;48.682;9.030;2023-01-08T14:42:34;10.30;99.90
3954;DHT22;1991;48.682;9.030;2023-01-08T14:45:26;10.20;99.90
3954;DHT22;1991;48.682;9.030;2023-01-08T14:47:55;10.10;99.90
3954;DHT22;1991;48.682;9.030;2023-01-08T14:50:32;9.90;99.90
3954;DHT22;1991;48.682;9.030;2023-01-08T14:53:05;9.80;99.90
3954;DHT22;1991;48.682;9.030;2023-01-08T14:55:34;9.70;99.90
3954;DHT22;1991;48.682;9.030;2023-01-08T14:58:01;9.70;99.90
3954;DHT22;1991;48.682;9.030;2023-01-08T15:00:29;9.70;99.90
3954;DHT22;1991;48.682;9.030;2023-01-08T15:02:56;9.70;99.90
3954;DHT22;1991;48.682;9.030;2023-01-08T15:05:30;9.80;99.90
3954;DHT22;1991;48.682;9.030;2023-01-08T15:08:00;9.90;99.90
3954;DHT22;1991;48.682;9.030;2023-01-08T15:10:34;9.90;99.90
3954;DHT22;1991;48.682;9.030;2023-01-08T15:13:00;9.90;99.90
3954;DHT22;1991;48.682;9.030;2023-01-08T15:15:29;9.80;99.90
3954;DHT22;1991;48.682;9.030;2023-01-08T15:17:55;9.60;99.90
3954;DHT22;1991;48.682;9.030;2023-01-08T15:20:25;9.40;99.90
3954;DHT22;1991;48.682;9.030;2023-01-08T15:22:53;9.30;99.90
3954;DHT22;1991;48.682;9.030;2023-01-08T15:25:28;9.20;99.90
3954;DHT22;1991;48.682;9.030;2023-01-08T15:27:58;9.00;99.90
3954;DHT22;1991;48.682;9.030;2023-01-08T15:32:51;8.70;99.90
3954;DHT22;1991;48.682;9.030;2023-01-08T15:35:19;8.60;99.90
3954;DHT22;1991;48.682;9.030;2023-01-08T15:37:45;8.70;99.90
3954;DHT22;1991;48.682;9.030;2023-01-08T15:40:11;8.80;99.90
3954;DHT22;1991;48.682;9.030;2023-01-08T15:42:37;8.80;99.90
3954;DHT22;1991;48.682;9.030;2023-01-08T15:45:26;8.90;99.90
3954;DHT22;1991;48.682;9.030;2023-01-08T15:47:56;8.90;99.90
3954;DHT22;1991;48.682;9.030;2023-01-08T15:50:24;8.90;99.90
3954;DHT22;1991;48.682;9.030;2023-01-08T15:52:50;8.80;99.90
3954;DHT22;1991;48.682;9.030;2023-01-08T15:55:20;8.80;99.90
3954;DHT22;1991;48.682;9.030;2023-01-08T15:57:46;8.80;99.90
3954;DHT22;1991;48.682;9.030;2023-01-08T16:00:14;8.80;99.90
3954;DHT22;1991;48.682;9.030;2023-01-08T16:02:44;8.80;99.90
3954;DHT22;1991;48.682;9.030;2023-01-08T16:05:10;8.80;99.90
3954;DHT22;1991;48.682;9.030;2023-01-08T16:07:36;8.80;99.90
3954;DHT22;1991;48.682;9.030;2023-01-08T16:10:02;8.80;99.90
3954;DHT22;1991;48.682;9.030;2023-01-08T16:12:28;8.80;99.90
3954;DHT22;1991;48.682;9.030;2023-01-08T16:14:54;8.80;99.90
3954;DHT22;1991;48.682;9.030;2023-01-08T16:17:19;8.80;99.90
3954;DHT22;1991;48.682;9.030;2023-01-08T16:19:45;8.80;99.90
3954;DHT22;1991;48.682;9.030;2023-01-08T16:22:10;8.80;99.90
3954;DHT22;1991;48.682;9.030;2023-01-08T16:24:36;8.90;99.90
3954;DHT22;1991;48.682;9.030;2023-01-08T16:27:02;8.80;99.90
3954;DHT22;1991;48.682;9.030;2023-01-08T16:29:27;8.90;99.90
3954;DHT22;1991;48.682;9.030;2023-01-08T16:31:53;8.90;99.90
3954;DHT22;1991;48.682;9.030;2023-01-08T16:34:20;8.80;99.90
3954;DHT22;1991;48.682;9.030;2023-01-08T16:36:47;8.80;99.90
3954;DHT22;1991;48.682;9.030;2023-01-08T16:39:12;8.80;99.90
3954;DHT22;1991;48.682;9.030;2023-01-08T16:41:38;8.80;99.90
3954;DHT22;1991;48.682;9.030;2023-01-08T16:44:04;8.80;99.90
3954;DHT22;1991;48.682;9.030;2023-01-08T16:46:29;8.80;99.90
3954;DHT22;1991;48.682;9.030;2023-01-08T16:48:55;8.80;99.90
3954;DHT22;1991;48.682;9.030;2023-01-08T16:51:21;8.80;99.90
3954;DHT22;1991;48.682;9.030;2023-01-08T16:53:49;8.80;99.90
3954;DHT22;1991;48.682;9.030;2023-01-08T16:56:15;8.80;99.90
3954;DHT22;1991;48.682;9.030;2023-01-08T16:58:40;8.80;99.90
3954;DHT22;1991;48.682;9.030;2023-01-08T17:01:08;8.80;99.90
3954;DHT22;1991;48.682;9.030;2023-01-08T17:03:37;8.80;99.90
3954;DHT22;1991;48.682;9.030;2023-01-08T17:06:08;8.80;99.90
3954;DHT22;1991;48.682;9.030;2023-01-08T17:08:34;8.80;99.90
3954;DHT22;1991;48.682;9.030;2023-01-08T17:11:12;8.80;99.90
3954;DHT22;1991;48.682;9.030;2023-01-08T17:13:38;8.80;99.90
3954;DHT22;1991;48.682;9.030;2023-01-08T17:16:05;8.80;99.90
3954;DHT22;1991;48.682;9.030;2023-01-08T17:18:31;8.70;99.90
3954;DHT22;1991;48.682;9.030;2023-01-08T17:20:57;8.80;99.90
3954;DHT22;1991;48.682;9.030;2023-01-08T17:23:22;8.80;99.90
3954;DHT22;1991;48.682;9.030;2023-01-08T17:25:52;8.80;99.90
3954;DHT22;1991;48.682;9.030;2023-01-08T17:28:17;8.80;99.90
3954;DHT22;1991;48.682;9.030;2023-01-08T17:30:43;8.70;99.90
3954;DHT22;1991;48.682;9.030;2023-01-08T17:33:08;8.70;99.90
3954;DHT22;1991;48.682;9.030;2023-01-08T17:35:34;8.70;99.90
3954;DHT22;1991;48.682;9.030;2023-01-08T17:38:00;8.70;99.90
3954;DHT22;1991;48.682;9.030;2023-01-08T17:40:25;8.70;99.90